ADDS TAF Board (Experimental) INFO Settings
IDs: Format: Expanded Condensed

KEWR - Newark Intl, NJ, US

Issued at 2122 UTC 01 Jul 2016
Updated at 2224 UTC 01 Jul 2016
Time2209Z 01/23Z 02/00Z 02/01Z 02/02Z 02/03Z 02/04Z 02/05Z 02/06Z 02/07Z 02/08Z 02/09Z 02/10Z 02/11Z
Type OBS PRVL PRVL PRVL PRVL PRVL PRVL PRVL PRVL PRVL PRVL PRVL PRVL PRVL
VIS 10 >6 >6 >6 >6 >6 >6 >6 >6 >6 >6 >6 >6 >6
CIG 65 80 80 80 80 50 50 -- -- -- -- -- -- --
Cover BKN BKN BKN BKN BKN BKN BKN SCT SCT SCT SKC SKC SKC SKC
FltCat VFR VFR VFR VFR VFR VFR VFR VFR VFR VFR VFR VFR VFR VFR
WX -RA -- -- -- -- VCTS VCTS -- -- -- -- -- -- --
WDir 220 200 200 200 200 240 240 280 280 280 320 320 320 320
WSpd 8 6 6 6 6 6 6 7 7 7 9 9 9 9
WGst -- -- -- -- -- -- -- -- -- -- -- -- -- --
R04/22
XWnd 2 -1 -1 -1 -1 3 3 7 7 7 8 8 8 8
HWnd -8 -6 -6 -6 -6 -5 -5 -2 -2 -2 4 4 4 4
R11/29
XWnd -7 -6 -6 -6 -6 -3 -3 1 1 1 6 6 6 6
HWnd -5 -2 -2 -2 -2 -5 -5 -7 -7 -7 -6 -6 -6 -6

Raw TAF
KEWR 012122Z 0121/0224 15012G18KT 2SM TSRA SCT015 BKN040CB
  TEMPO 0121/0122 VRB20G35KT 1SM +TSRA BKN015CB
  FM012200 20006KT P6SM VCTS SCT035 BKN070CB
  FM012300 20006KT P6SM SCT040 BKN080
  FM020300 24006KT P6SM VCTS BKN050CB
  FM020500 28007KT P6SM SCT040 SCT100
  FM020800 32009KT P6SM SKC
  FM021300 32013KT P6SM SKC
  FM021700 30013G19KT P6SM SCT250


Raw METAR
KEWR 012209Z 22008KT 10SM -RA FEW008 SCT040CB BKN065 BKN140 BKN250 23/21 A2987
KEWR 012151Z 26009G17KT 8SM -TSRA FEW006 BKN040CB BKN075 BKN130 OVC200 23/21 A2987
KEWR 012058Z 15012G18KT 10SM TS FEW008 SCT040CB BKN075 BKN140 OVC250 24/21 A2984
KEWR 012051Z 15014G18KT 10SM FEW008 SCT040 BKN075 BKN140 OVC250 24/21 A2986
KEWR 012015Z 15007G14KT 10SM FEW008 FEW012 SCT040 SCT130 BKN180 BKN250 24/21 A2986
KEWR 011951Z 13008KT 5SM TSRA BR FEW008 SCT012 BKN040CB BKN130 BKN180 OVC250 24/22 A2988
KEWR 011937Z 15009G17KT 6SM +TSRA FEW009 SCT012 BKN035CB BKN130 BKN170 OVC250 24/21 A2989

METAR Board
Radar Display
Forecast Discussion

TAF Board Legend

Potential Impact
Threat None Slight Moderate High
Visibility (sm) ≥5.1 5.1>X≥3 3>X≥1 <1
Ceiling (100 ft) ≥30.1 30.1>X≥10 10>X≥5 <5
Wind Speed (kt) <10 10≤X<20 20≤X<30 ≥30
Wind Gust (kt) <15 15≤X<25 25≤X<35 ≥35
Weather No Wx Reported VCTS,-TS,-FZRA,SN TS,FZRA +TS,+FZRA,+SN